MET'MAP v2.0
soon released !

Expected late october,
this new version will be
more efficient, smarter,
and hosted on a brand new
server x3 powerfull...
...and still free !


Not compatible ?
Try the mobile version !

LOG IN : | Subscribe | Disclaimer | Who is Orbifly ? |
ICAO code :

TAF - LRCL Cluj-Napoca International Airport - 02 Jun 2020 06:57 UTC - Data Source NOAA   


- Airport Elevation : 1036 ft
- IATA code : CLJ
- No reported NOTAMs.


LRCL - Cluj-Napoca International Airport

Latest METAR recorded : 2015/08/11 08:00 LRCL 110800Z VRB01KT CAVOK 28/11 Q1016
TAF TAF LRCL
Valid from the 02 at 03:00 until the 02 at 12:00 UTC


020200Z 0203/0212 28007KT 9999 SCT045
TEMPO 0208/0212 5000 -SHRA SCT015 SCT040CB

Source NOAA


MET'MAP, your aeronautical weather chart ! - Copyright ORBIFLY December 2007

Programming & Development : Alexandra Zaïnal
Co-Developer : Marc-Olivier Méhu
Technical & hardware support : Manuel Goepfert
Concept & Financing : Baudouin d'Aumeries